Tabarka, Tunisia

9:52 AM CET on October 23, 2014 (GMT +0100)
7 November | Change Station
CLOSE
Current Station
Airport
Location: Tabarka,
Elevation: 230 ft
Nearby Weather Stations

Elev 230 ft 36.98 °N, 8.88 °E | Updated 52 minutes ago

Scattered Clouds
Scattered Clouds
66 °F
Feels Like 66 °F
N
30
Wind Variable Wind from West
Gusts 41 mph

Today
High -- | Low -- °F
--% Chance of Precip.
Yesterday
High -- | Low -- °F
Precip. -- in
6:39 AM 5:38 PM
Waning Crescent, 0% visible
Pressure 30.04 in
Visibility 6.2 miles
Clouds Scattered Clouds 2000 ft
Scattered Clouds 3000 ft
Dew Point 46 °F
Humidity 49%
Rainfall 0.00 in
Snow Depth Not available.
UV 2 out of 12
Pollen Not available.
Air Quality Not available.
Flu Activity Not available.
METAR DTKA 230800Z 27026G36KT 9999 SCT020 SCT030 19/08 Q1017 NOSIG

More Conditions Fewer Conditions

Pressure 30.04 in
Visibility 6.2 miles
Clouds Scattered Clouds 2000 ft
Scattered Clouds 3000 ft
Dew Point 46 °F
Humidity 49%
Rainfall 0.00 in
Snow Depth Not available.
UV 2 out of 12
Pollen Not available.
Air Quality Not available.
Flu Activity Not available.
METAR DTKA 230800Z 27026G36KT 9999 SCT020 SCT030 19/08 Q1017 NOSIG

More Conditions Fewer Conditions

10-Day Weather Forecast

Almanac

Astronomy

Oct. 23, 2014 Rise Set
Actual Time 6:39 AM CET 5:38 PM CET
Civil Twilight 6:13 AM CET 6:04 PM CET
Nautical Twilight 5:43 AM CET 6:34 PM CET
Astronomical Twilight 5:13 AM CET 7:05 PM CET
Moon 6:04 AM CET 5:29 PM CET
Length of Visible Light 11h 51m
Length of Day
10h 58m
Tomorrow will be 2m 11s shorter.
Waning Crescent, 0% of the Moon is Illuminated
Today
Waning Crescent
Oct 23
New
Oct 30
First Quarter
Nov 6
Full
Nov 14
Last Quarter

Yesterday's Extremes

Country Highs Country Lows

Community

WunderPhotos

Upload Photos

1,764,197 photos uploaded!

Nearby

Snow Depth

Not available.

Earthquake Activity

City Distance Mag. Time & Date
No recent earthquake activity has been reported nearby.
Minimum magnitude displayed is 2.5.

Coastal Water Temperatures

Place Temperature
No Stations Reporting

Nearby Weather Stations